sensor_id;sensor_type;location;lat;lon;timestamp;P1;durP1;ratioP1;P2;durP2;ratioP2
43626;SDS011;29217;52.586;13.442;2022-08-01T00:02:10;6.43;;;3.28;;
43626;SDS011;29217;52.586;13.442;2022-08-01T00:04:36;4.68;;;3.70;;
43626;SDS011;29217;52.586;13.442;2022-08-01T00:07:01;5.72;;;3.67;;
43626;SDS011;29217;52.586;13.442;2022-08-01T00:09:27;4.55;;;3.58;;
43626;SDS011;29217;52.586;13.442;2022-08-01T00:11:52;5.55;;;3.78;;
43626;SDS011;29217;52.586;13.442;2022-08-01T00:14:18;4.95;;;3.58;;
43626;SDS011;29217;52.586;13.442;2022-08-01T00:16:44;6.78;;;4.18;;
43626;SDS011;29217;52.586;13.442;2022-08-01T00:19:09;5.05;;;3.33;;
43626;SDS011;29217;52.586;13.442;2022-08-01T00:21:35;5.30;;;3.88;;
43626;SDS011;29217;52.586;13.442;2022-08-01T00:24:00;6.13;;;3.35;;
43626;SDS011;29217;52.586;13.442;2022-08-01T00:26:26;5.05;;;3.40;;
43626;SDS011;29217;52.586;13.442;2022-08-01T00:28:51;4.80;;;3.65;;
43626;SDS011;29217;52.586;13.442;2022-08-01T00:31:17;7.70;;;3.97;;
43626;SDS011;29217;52.586;13.442;2022-08-01T00:33:42;5.43;;;4.53;;
43626;SDS011;29217;52.586;13.442;2022-08-01T00:36:08;5.68;;;4.30;;
43626;SDS011;29217;52.586;13.442;2022-08-01T00:38:33;7.50;;;4.60;;
43626;SDS011;29217;52.586;13.442;2022-08-01T00:40:59;7.95;;;4.63;;
43626;SDS011;29217;52.586;13.442;2022-08-01T00:43:24;5.75;;;4.32;;
43626;SDS011;29217;52.586;13.442;2022-08-01T00:45:50;6.57;;;4.78;;
43626;SDS011;29217;52.586;13.442;2022-08-01T00:48:15;5.65;;;4.43;;
43626;SDS011;29217;52.586;13.442;2022-08-01T00:50:41;6.57;;;4.55;;
43626;SDS011;29217;52.586;13.442;2022-08-01T00:53:07;5.78;;;4.50;;
43626;SDS011;29217;52.586;13.442;2022-08-01T00:55:32;6.40;;;4.70;;
43626;SDS011;29217;52.586;13.442;2022-08-01T00:57:58;6.43;;;5.20;;
43626;SDS011;29217;52.586;13.442;2022-08-01T01:00:24;5.93;;;4.80;;
43626;SDS011;29217;52.586;13.442;2022-08-01T01:02:50;6.47;;;4.93;;
43626;SDS011;29217;52.586;13.442;2022-08-01T01:05:16;5.13;;;4.63;;
43626;SDS011;29217;52.586;13.442;2022-08-01T01:07:48;6.10;;;4.85;;
43626;SDS011;29217;52.586;13.442;2022-08-01T01:10:37;7.55;;;5.15;;
43626;SDS011;29217;52.586;13.442;2022-08-01T01:13:18;6.15;;;4.82;;
43626;SDS011;29217;52.586;13.442;2022-08-01T01:16:00;6.32;;;4.97;;
43626;SDS011;29217;52.586;13.442;2022-08-01T01:23:47;7.57;;;5.15;;
43626;SDS011;29217;52.586;13.442;2022-08-01T01:32:02;7.45;;;4.72;;
43626;SDS011;29217;52.586;13.442;2022-08-01T01:34:32;6.60;;;5.15;;
43626;SDS011;29217;52.586;13.442;2022-08-01T01:37:01;7.20;;;4.55;;
43626;SDS011;29217;52.586;13.442;2022-08-01T01:39:30;6.22;;;4.85;;
43626;SDS011;29217;52.586;13.442;2022-08-01T01:41:58;6.68;;;5.30;;
43626;SDS011;29217;52.586;13.442;2022-08-01T01:44:26;5.90;;;4.75;;
43626;SDS011;29217;52.586;13.442;2022-08-01T01:46:53;7.00;;;4.72;;
43626;SDS011;29217;52.586;13.442;2022-08-01T01:49:20;6.60;;;5.10;;
43626;SDS011;29217;52.586;13.442;2022-08-01T01:51:48;6.50;;;4.85;;
43626;SDS011;29217;52.586;13.442;2022-08-01T01:54:15;6.72;;;4.25;;
43626;SDS011;29217;52.586;13.442;2022-08-01T01:56:42;6.03;;;5.03;;
43626;SDS011;29217;52.586;13.442;2022-08-01T01:59:15;5.70;;;4.78;;
43626;SDS011;29217;52.586;13.442;2022-08-01T02:01:49;5.60;;;4.88;;
43626;SDS011;29217;52.586;13.442;2022-08-01T02:04:16;7.78;;;5.40;;
43626;SDS011;29217;52.586;13.442;2022-08-01T02:06:45;6.53;;;4.75;;
43626;SDS011;29217;52.586;13.442;2022-08-01T02:09:11;6.75;;;5.25;;
43626;SDS011;29217;52.586;13.442;2022-08-01T02:11:41;8.65;;;5.25;;
43626;SDS011;29217;52.586;13.442;2022-08-01T02:14:08;7.00;;;5.10;;
43626;SDS011;29217;52.586;13.442;2022-08-01T02:16:35;6.25;;;5.57;;
43626;SDS011;29217;52.586;13.442;2022-08-01T02:19:04;5.70;;;5.15;;
43626;SDS011;29217;52.586;13.442;2022-08-01T02:21:31;7.25;;;5.30;;
43626;SDS011;29217;52.586;13.442;2022-08-01T02:27:08;7.40;;;5.32;;
43626;SDS011;29217;52.586;13.442;2022-08-01T02:29:40;6.80;;;5.40;;
43626;SDS011;29217;52.586;13.442;2022-08-01T02:32:23;6.80;;;5.15;;
43626;SDS011;29217;52.586;13.442;2022-08-01T02:34:52;8.05;;;5.57;;
43626;SDS011;29217;52.586;13.442;2022-08-01T02:37:21;6.80;;;5.20;;
43626;SDS011;29217;52.586;13.442;2022-08-01T02:39:50;6.57;;;4.97;;
43626;SDS011;29217;52.586;13.442;2022-08-01T02:42:19;5.68;;;4.88;;
43626;SDS011;29217;52.586;13.442;2022-08-01T02:44:46;7.05;;;5.40;;
43626;SDS011;29217;52.586;13.442;2022-08-01T02:47:14;6.47;;;4.85;;
43626;SDS011;29217;52.586;13.442;2022-08-01T02:49:44;10.88;;;5.32;;
43626;SDS011;29217;52.586;13.442;2022-08-01T02:52:12;7.78;;;5.22;;
43626;SDS011;29217;52.586;13.442;2022-08-01T02:54:43;7.85;;;5.05;;
43626;SDS011;29217;52.586;13.442;2022-08-01T02:57:10;6.28;;;4.25;;
43626;SDS011;29217;52.586;13.442;2022-08-01T02:59:37;5.70;;;5.05;;
43626;SDS011;29217;52.586;13.442;2022-08-01T03:02:05;5.50;;;4.90;;
43626;SDS011;29217;52.586;13.442;2022-08-01T03:04:35;7.43;;;5.13;;
43626;SDS011;29217;52.586;13.442;2022-08-01T03:07:03;7.03;;;4.85;;
43626;SDS011;29217;52.586;13.442;2022-08-01T03:09:32;8.73;;;5.03;;
43626;SDS011;29217;52.586;13.442;2022-08-01T03:12:02;7.65;;;5.05;;
43626;SDS011;29217;52.586;13.442;2022-08-01T03:14:31;6.43;;;5.43;;
43626;SDS011;29217;52.586;13.442;2022-08-01T03:17:00;6.03;;;4.82;;
43626;SDS011;29217;52.586;13.442;2022-08-01T03:19:26;5.65;;;4.63;;
43626;SDS011;29217;52.586;13.442;2022-08-01T03:21:55;5.80;;;5.22;;
43626;SDS011;29217;52.586;13.442;2022-08-01T03:24:23;8.23;;;5.10;;
43626;SDS011;29217;52.586;13.442;2022-08-01T03:26:50;7.22;;;4.97;;
43626;SDS011;29217;52.586;13.442;2022-08-01T03:29:21;7.55;;;5.57;;
43626;SDS011;29217;52.586;13.442;2022-08-01T03:31:50;10.55;;;4.97;;
43626;SDS011;29217;52.586;13.442;2022-08-01T03:34:16;8.13;;;5.50;;
43626;SDS011;29217;52.586;13.442;2022-08-01T03:36:45;8.38;;;5.80;;
43626;SDS011;29217;52.586;13.442;2022-08-01T03:39:14;7.70;;;5.53;;
43626;SDS011;29217;52.586;13.442;2022-08-01T03:41:43;9.70;;;5.20;;
43626;SDS011;29217;52.586;13.442;2022-08-01T03:44:14;5.68;;;4.95;;
43626;SDS011;29217;52.586;13.442;2022-08-01T03:46:43;7.93;;;5.25;;
43626;SDS011;29217;52.586;13.442;2022-08-01T03:49:14;7.93;;;5.80;;
43626;SDS011;29217;52.586;13.442;2022-08-01T03:51:44;8.40;;;5.93;;
43626;SDS011;29217;52.586;13.442;2022-08-01T03:54:13;8.38;;;5.65;;
43626;SDS011;29217;52.586;13.442;2022-08-01T03:56:40;8.82;;;5.60;;
43626;SDS011;29217;52.586;13.442;2022-08-01T03:59:08;8.02;;;5.57;;
43626;SDS011;29217;52.586;13.442;2022-08-01T04:01:34;10.75;;;5.85;;
43626;SDS011;29217;52.586;13.442;2022-08-01T04:04:01;9.88;;;5.60;;
43626;SDS011;29217;52.586;13.442;2022-08-01T04:06:29;6.10;;;5.40;;
43626;SDS011;29217;52.586;13.442;2022-08-01T04:08:55;6.90;;;5.32;;
43626;SDS011;29217;52.586;13.442;2022-08-01T04:11:22;10.32;;;5.60;;
43626;SDS011;29217;52.586;13.442;2022-08-01T04:13:50;10.30;;;5.72;;
43626;SDS011;29217;52.586;13.442;2022-08-01T04:16:17;7.15;;;5.45;;
43626;SDS011;29217;52.586;13.442;2022-08-01T04:18:43;7.47;;;5.15;;
43626;SDS011;29217;52.586;13.442;2022-08-01T04:21:09;10.13;;;5.50;;
43626;SDS011;29217;52.586;13.442;2022-08-01T04:23:35;7.65;;;5.70;;
43626;SDS011;29217;52.586;13.442;2022-08-01T04:26:03;9.40;;;5.28;;
43626;SDS011;29217;52.586;13.442;2022-08-01T04:28:31;7.97;;;5.82;;
43626;SDS011;29217;52.586;13.442;2022-08-01T04:31:01;10.07;;;5.30;;
43626;SDS011;29217;52.586;13.442;2022-08-01T04:33:29;9.93;;;6.00;;
43626;SDS011;29217;52.586;13.442;2022-08-01T04:35:55;8.90;;;6.68;;
43626;SDS011;29217;52.586;13.442;2022-08-01T04:38:25;9.45;;;7.18;;
43626;SDS011;29217;52.586;13.442;2022-08-01T04:40:52;8.98;;;6.38;;
43626;SDS011;29217;52.586;13.442;2022-08-01T04:43:19;14.88;;;6.32;;
43626;SDS011;29217;52.586;13.442;2022-08-01T04:45:45;10.68;;;6.38;;
43626;SDS011;29217;52.586;13.442;2022-08-01T04:48:12;11.98;;;6.60;;
43626;SDS011;29217;52.586;13.442;2022-08-01T04:50:40;11.52;;;7.13;;
43626;SDS011;29217;52.586;13.442;2022-08-01T04:53:11;12.32;;;7.03;;
43626;SDS011;29217;52.586;13.442;2022-08-01T04:55:38;12.95;;;7.57;;
43626;SDS011;29217;52.586;13.442;2022-08-01T04:58:03;12.20;;;7.70;;
43626;SDS011;29217;52.586;13.442;2022-08-01T05:00:30;17.52;;;8.30;;
43626;SDS011;29217;52.586;13.442;2022-08-01T05:02:55;14.57;;;8.23;;
43626;SDS011;29217;52.586;13.442;2022-08-01T05:05:21;13.77;;;8.38;;
43626;SDS011;29217;52.586;13.442;2022-08-01T05:07:47;16.35;;;8.40;;
43626;SDS011;29217;52.586;13.442;2022-08-01T05:10:12;20.35;;;8.35;;
43626;SDS011;29217;52.586;13.442;2022-08-01T05:12:38;14.77;;;8.65;;
43626;SDS011;29217;52.586;13.442;2022-08-01T05:15:03;11.90;;;8.68;;
43626;SDS011;29217;52.586;13.442;2022-08-01T05:17:30;16.08;;;8.93;;
43626;SDS011;29217;52.586;13.442;2022-08-01T05:19:56;13.85;;;8.27;;
43626;SDS011;29217;52.586;13.442;2022-08-01T05:22:22;14.38;;;8.63;;
43626;SDS011;29217;52.586;13.442;2022-08-01T05:24:49;13.38;;;8.93;;
43626;SDS011;29217;52.586;13.442;2022-08-01T05:27:14;15.30;;;8.88;;
43626;SDS011;29217;52.586;13.442;2022-08-01T05:29:40;13.57;;;9.40;;
43626;SDS011;29217;52.586;13.442;2022-08-01T05:32:06;13.10;;;9.15;;
43626;SDS011;29217;52.586;13.442;2022-08-01T05:34:31;13.18;;;8.65;;
43626;SDS011;29217;52.586;13.442;2022-08-01T05:36:57;15.00;;;9.50;;
43626;SDS011;29217;52.586;13.442;2022-08-01T05:39:22;13.40;;;9.30;;
43626;SDS011;29217;52.586;13.442;2022-08-01T05:41:48;13.35;;;9.45;;
43626;SDS011;29217;52.586;13.442;2022-08-01T05:44:13;13.50;;;9.30;;
43626;SDS011;29217;52.586;13.442;2022-08-01T05:46:39;14.48;;;9.07;;
43626;SDS011;29217;52.586;13.442;2022-08-01T05:49:05;13.80;;;9.45;;
43626;SDS011;29217;52.586;13.442;2022-08-01T05:51:30;15.18;;;9.38;;
43626;SDS011;29217;52.586;13.442;2022-08-01T05:53:56;18.98;;;9.57;;
43626;SDS011;29217;52.586;13.442;2022-08-01T05:56:22;12.52;;;8.77;;
43626;SDS011;29217;52.586;13.442;2022-08-01T05:58:48;12.82;;;9.02;;
43626;SDS011;29217;52.586;13.442;2022-08-01T06:01:15;12.13;;;8.73;;
43626;SDS011;29217;52.586;13.442;2022-08-01T06:03:42;13.18;;;8.27;;
43626;SDS011;29217;52.586;13.442;2022-08-01T06:06:07;11.18;;;7.68;;
43626;SDS011;29217;52.586;13.442;2022-08-01T06:08:33;11.10;;;7.90;;
43626;SDS011;29217;52.586;13.442;2022-08-01T06:10:58;11.57;;;7.65;;
43626;SDS011;29217;52.586;13.442;2022-08-01T06:13:24;13.48;;;6.68;;
43626;SDS011;29217;52.586;13.442;2022-08-01T06:15:50;11.95;;;7.60;;
43626;SDS011;29217;52.586;13.442;2022-08-01T06:18:15;12.63;;;7.47;;
43626;SDS011;29217;52.586;13.442;2022-08-01T06:20:41;9.77;;;7.53;;
43626;SDS011;29217;52.586;13.442;2022-08-01T06:23:07;12.55;;;7.20;;
43626;SDS011;29217;52.586;13.442;2022-08-01T06:25:33;11.38;;;8.50;;
43626;SDS011;29217;52.586;13.442;2022-08-01T06:27:59;14.38;;;7.40;;
43626;SDS011;29217;52.586;13.442;2022-08-01T06:30:25;11.00;;;7.38;;
43626;SDS011;29217;52.586;13.442;2022-08-01T06:32:51;8.65;;;6.28;;
43626;SDS011;29217;52.586;13.442;2022-08-01T06:35:16;8.65;;;6.03;;
43626;SDS011;29217;52.586;13.442;2022-08-01T06:37:42;9.52;;;5.72;;
43626;SDS011;29217;52.586;13.442;2022-08-01T06:40:10;7.82;;;5.30;;
43626;SDS011;29217;52.586;13.442;2022-08-01T06:42:37;9.32;;;4.90;;
43626;SDS011;29217;52.586;13.442;2022-08-01T06:45:09;6.20;;;5.28;;
43626;SDS011;29217;52.586;13.442;2022-08-01T06:47:36;6.03;;;4.80;;
43626;SDS011;29217;52.586;13.442;2022-08-01T06:50:03;6.35;;;4.65;;
43626;SDS011;29217;52.586;13.442;2022-08-01T06:52:30;7.75;;;4.47;;
43626;SDS011;29217;52.586;13.442;2022-08-01T06:54:56;7.90;;;4.03;;
43626;SDS011;29217;52.586;13.442;2022-08-01T06:57:21;7.00;;;3.88;;
43626;SDS011;29217;52.586;13.442;2022-08-01T06:59:47;7.43;;;3.70;;
43626;SDS011;29217;52.586;13.442;2022-08-01T07:02:13;4.80;;;3.85;;
43626;SDS011;29217;52.586;13.442;2022-08-01T07:04:38;7.57;;;3.78;;
43626;SDS011;29217;52.586;13.442;2022-08-01T07:07:04;6.85;;;3.80;;
43626;SDS011;29217;52.586;13.442;2022-08-01T07:09:29;5.45;;;3.80;;
43626;SDS011;29217;52.586;13.442;2022-08-01T07:11:55;5.82;;;3.80;;
43626;SDS011;29217;52.586;13.442;2022-08-01T07:14:21;5.00;;;3.90;;
43626;SDS011;29217;52.586;13.442;2022-08-01T07:16:47;6.13;;;4.22;;
43626;SDS011;29217;52.586;13.442;2022-08-01T07:19:13;9.85;;;3.80;;
43626;SDS011;29217;52.586;13.442;2022-08-01T07:21:39;6.95;;;3.58;;
43626;SDS011;29217;52.586;13.442;2022-08-01T07:24:05;5.43;;;3.50;;
43626;SDS011;29217;52.586;13.442;2022-08-01T07:26:32;5.95;;;3.92;;
43626;SDS011;29217;52.586;13.442;2022-08-01T07:28:57;6.53;;;3.72;;
43626;SDS011;29217;52.586;13.442;2022-08-01T07:31:23;8.88;;;3.75;;
43626;SDS011;29217;52.586;13.442;2022-08-01T07:33:49;5.47;;;3.70;;
43626;SDS011;29217;52.586;13.442;2022-08-01T07:36:17;4.93;;;3.50;;
43626;SDS011;29217;52.586;13.442;2022-08-01T07:38:44;5.13;;;3.88;;
43626;SDS011;29217;52.586;13.442;2022-08-01T07:41:10;4.82;;;3.85;;
43626;SDS011;29217;52.586;13.442;2022-08-01T07:43:35;8.00;;;3.97;;
43626;SDS011;29217;52.586;13.442;2022-08-01T07:46:01;3.92;;;3.40;;
43626;SDS011;29217;52.586;13.442;2022-08-01T07:48:30;7.25;;;3.67;;
43626;SDS011;29217;52.586;13.442;2022-08-01T07:50:56;4.47;;;3.30;;
43626;SDS011;29217;52.586;13.442;2022-08-01T07:53:22;4.60;;;2.90;;
43626;SDS011;29217;52.586;13.442;2022-08-01T07:55:48;7.97;;;3.30;;
43626;SDS011;29217;52.586;13.442;2022-08-01T07:58:14;3.40;;;3.10;;
43626;SDS011;29217;52.586;13.442;2022-08-01T08:00:40;4.60;;;3.20;;
43626;SDS011;29217;52.586;13.442;2022-08-01T08:03:06;6.75;;;3.28;;
43626;SDS011;29217;52.586;13.442;2022-08-01T08:05:31;4.32;;;2.95;;
43626;SDS011;29217;52.586;13.442;2022-08-01T08:08:00;4.10;;;3.03;;
43626;SDS011;29217;52.586;13.442;2022-08-01T08:10:26;4.13;;;3.47;;
43626;SDS011;29217;52.586;13.442;2022-08-01T08:12:51;4.72;;;3.30;;
43626;SDS011;29217;52.586;13.442;2022-08-01T08:15:17;4.35;;;2.45;;
43626;SDS011;29217;52.586;13.442;2022-08-01T08:17:43;4.18;;;2.67;;
43626;SDS011;29217;52.586;13.442;2022-08-01T08:20:08;4.60;;;2.97;;
43626;SDS011;29217;52.586;13.442;2022-08-01T08:22:34;7.78;;;3.00;;
43626;SDS011;29217;52.586;13.442;2022-08-01T08:25:00;5.47;;;2.65;;
43626;SDS011;29217;52.586;13.442;2022-08-01T08:27:25;4.28;;;2.38;;
43626;SDS011;29217;52.586;13.442;2022-08-01T08:29:51;4.28;;;2.50;;
43626;SDS011;29217;52.586;13.442;2022-08-01T08:32:17;3.97;;;2.47;;
43626;SDS011;29217;52.586;13.442;2022-08-01T08:34:42;5.47;;;2.50;;
43626;SDS011;29217;52.586;13.442;2022-08-01T08:37:08;8.48;;;3.05;;
43626;SDS011;29217;52.586;13.442;2022-08-01T08:39:34;4.20;;;2.70;;
43626;SDS011;29217;52.586;13.442;2022-08-01T08:42:00;3.92;;;2.85;;
43626;SDS011;29217;52.586;13.442;2022-08-01T08:44:27;3.30;;;2.55;;
43626;SDS011;29217;52.586;13.442;2022-08-01T08:46:52;5.15;;;2.70;;
43626;SDS011;29217;52.586;13.442;2022-08-01T08:49:25;5.78;;;2.65;;
43626;SDS011;29217;52.586;13.442;2022-08-01T08:51:52;7.25;;;2.30;;
43626;SDS011;29217;52.586;13.442;2022-08-01T08:54:19;3.10;;;1.83;;
43626;SDS011;29217;52.586;13.442;2022-08-01T08:56:47;4.20;;;1.98;;
43626;SDS011;29217;52.586;13.442;2022-08-01T08:59:15;6.97;;;2.05;;
43626;SDS011;29217;52.586;13.442;2022-08-01T09:01:41;2.70;;;2.05;;
43626;SDS011;29217;52.586;13.442;2022-08-01T09:04:07;4.32;;;2.00;;
43626;SDS011;29217;52.586;13.442;2022-08-01T09:06:33;3.13;;;2.10;;
43626;SDS011;29217;52.586;13.442;2022-08-01T09:08:58;2.50;;;1.80;;
43626;SDS011;29217;52.586;13.442;2022-08-01T09:11:25;2.20;;;1.60;;
43626;SDS011;29217;52.586;13.442;2022-08-01T09:16:30;2.47;;;1.80;;
43626;SDS011;29217;52.586;13.442;2022-08-01T09:19:06;2.45;;;1.58;;
43626;SDS011;29217;52.586;13.442;2022-08-01T09:21:55;2.97;;;1.63;;
43626;SDS011;29217;52.586;13.442;2022-08-01T09:24:22;2.67;;;1.30;;
43626;SDS011;29217;52.586;13.442;2022-08-01T09:26:47;1.88;;;1.50;;
43626;SDS011;29217;52.586;13.442;2022-08-01T09:29:19;3.30;;;1.90;;
43626;SDS011;29217;52.586;13.442;2022-08-01T09:31:49;2.67;;;1.50;;
43626;SDS011;29217;52.586;13.442;2022-08-01T09:34:16;4.93;;;1.50;;
43626;SDS011;29217;52.586;13.442;2022-08-01T09:36:57;1.98;;;1.70;;
43626;SDS011;29217;52.586;13.442;2022-08-01T09:39:30;2.33;;;1.52;;
43626;SDS011;29217;52.586;13.442;2022-08-01T09:41:59;7.05;;;1.70;;
43626;SDS011;29217;52.586;13.442;2022-08-01T09:44:36;3.05;;;1.98;;
43626;SDS011;29217;52.586;13.442;2022-08-01T09:47:09;2.20;;;2.00;;
43626;SDS011;29217;52.586;13.442;2022-08-01T09:49:36;5.53;;;1.73;;
43626;SDS011;29217;52.586;13.442;2022-08-01T09:52:15;2.72;;;2.25;;
43626;SDS011;29217;52.586;13.442;2022-08-01T09:54:53;5.65;;;2.00;;
43626;SDS011;29217;52.586;13.442;2022-08-01T09:57:23;3.22;;;2.00;;
43626;SDS011;29217;52.586;13.442;2022-08-01T09:59:50;2.15;;;1.95;;
43626;SDS011;29217;52.586;13.442;2022-08-01T10:02:27;7.40;;;1.90;;
43626;SDS011;29217;52.586;13.442;2022-08-01T10:04:55;2.25;;;1.90;;
43626;SDS011;29217;52.586;13.442;2022-08-01T10:07:21;2.63;;;1.70;;
43626;SDS011;29217;52.586;13.442;2022-08-01T10:09:47;2.92;;;1.67;;
43626;SDS011;29217;52.586;13.442;2022-08-01T10:12:15;2.83;;;1.90;;
43626;SDS011;29217;52.586;13.442;2022-08-01T10:14:44;4.25;;;1.67;;
43626;SDS011;29217;52.586;13.442;2022-08-01T10:17:12;2.33;;;2.13;;
43626;SDS011;29217;52.586;13.442;2022-08-01T10:19:39;3.83;;;2.25;;
43626;SDS011;29217;52.586;13.442;2022-08-01T10:22:07;2.53;;;2.22;;
43626;SDS011;29217;52.586;13.442;2022-08-01T10:24:36;3.03;;;2.00;;
43626;SDS011;29217;52.586;13.442;2022-08-01T10:27:05;5.40;;;2.42;;
43626;SDS011;29217;52.586;13.442;2022-08-01T10:30:17;5.80;;;2.33;;
43626;SDS011;29217;52.586;13.442;2022-08-01T10:32:22;3.28;;;2.47;;
43626;SDS011;29217;52.586;13.442;2022-08-01T10:34:51;3.00;;;2.25;;
43626;SDS011;29217;52.586;13.442;2022-08-01T10:37:18;3.38;;;2.22;;
43626;SDS011;29217;52.586;13.442;2022-08-01T10:39:43;8.13;;;2.10;;
43626;SDS011;29217;52.586;13.442;2022-08-01T10:42:10;5.55;;;1.92;;
43626;SDS011;29217;52.586;13.442;2022-08-01T10:44:37;6.13;;;2.08;;
43626;SDS011;29217;52.586;13.442;2022-08-01T10:47:08;3.13;;;2.05;;
43626;SDS011;29217;52.586;13.442;2022-08-01T10:49:38;4.38;;;1.65;;
43626;SDS011;29217;52.586;13.442;2022-08-01T10:52:23;2.33;;;1.90;;
43626;SDS011;29217;52.586;13.442;2022-08-01T10:54:49;2.65;;;1.65;;
43626;SDS011;29217;52.586;13.442;2022-08-01T11:00:08;3.75;;;1.65;;
43626;SDS011;29217;52.586;13.442;2022-08-01T11:02:34;7.97;;;1.80;;
43626;SDS011;29217;52.586;13.442;2022-08-01T11:05:12;5.80;;;1.80;;
43626;SDS011;29217;52.586;13.442;2022-08-01T11:07:47;2.47;;;1.67;;
43626;SDS011;29217;52.586;13.442;2022-08-01T11:10:37;3.67;;;1.60;;
43626;SDS011;29217;52.586;13.442;2022-08-01T11:13:04;4.90;;;1.95;;
43626;SDS011;29217;52.586;13.442;2022-08-01T11:15:32;3.08;;;1.20;;
43626;SDS011;29217;52.586;13.442;2022-08-01T11:18:03;2.67;;;1.55;;
43626;SDS011;29217;52.586;13.442;2022-08-01T11:20:56;3.30;;;1.08;;
43626;SDS011;29217;52.586;13.442;2022-08-01T11:23:23;1.40;;;1.13;;
43626;SDS011;29217;52.586;13.442;2022-08-01T11:30:48;1.25;;;1.00;;
43626;SDS011;29217;52.586;13.442;2022-08-01T11:33:16;3.08;;;1.20;;
43626;SDS011;29217;52.586;13.442;2022-08-01T11:46:46;4.70;;;1.83;;
43626;SDS011;29217;52.586;13.442;2022-08-01T11:49:21;5.13;;;1.50;;
43626;SDS011;29217;52.586;13.442;2022-08-01T11:51:47;4.25;;;1.70;;
43626;SDS011;29217;52.586;13.442;2022-08-01T11:54:13;6.35;;;1.45;;
43626;SDS011;29217;52.586;13.442;2022-08-01T11:56:38;4.13;;;1.30;;
43626;SDS011;29217;52.586;13.442;2022-08-01T11:59:05;3.25;;;1.63;;
43626;SDS011;29217;52.586;13.442;2022-08-01T12:01:31;2.05;;;1.52;;
43626;SDS011;29217;52.586;13.442;2022-08-01T12:03:56;5.55;;;2.58;;
43626;SDS011;29217;52.586;13.442;2022-08-01T12:06:28;4.43;;;1.92;;
43626;SDS011;29217;52.586;13.442;2022-08-01T12:08:54;5.07;;;1.40;;
43626;SDS011;29217;52.586;13.442;2022-08-01T12:11:19;1.63;;;1.10;;
43626;SDS011;29217;52.586;13.442;2022-08-01T12:13:45;3.22;;;1.23;;
43626;SDS011;29217;52.586;13.442;2022-08-01T12:16:11;5.90;;;1.25;;
43626;SDS011;29217;52.586;13.442;2022-08-01T12:18:41;3.35;;;1.10;;
43626;SDS011;29217;52.586;13.442;2022-08-01T12:21:07;5.80;;;1.02;;
43626;SDS011;29217;52.586;13.442;2022-08-01T12:23:33;1.20;;;1.00;;
43626;SDS011;29217;52.586;13.442;2022-08-01T12:25:58;0.80;;;0.80;;
43626;SDS011;29217;52.586;13.442;2022-08-01T12:28:25;1.58;;;1.10;;
43626;SDS011;29217;52.586;13.442;2022-08-01T12:30:51;1.40;;;1.25;;
43626;SDS011;29217;52.586;13.442;2022-08-01T12:33:17;7.43;;;1.08;;
43626;SDS011;29217;52.586;13.442;2022-08-01T12:35:44;5.43;;;1.30;;
43626;SDS011;29217;52.586;13.442;2022-08-01T12:38:19;1.05;;;0.98;;
43626;SDS011;29217;52.586;13.442;2022-08-01T12:40:52;1.63;;;1.00;;
43626;SDS011;29217;52.586;13.442;2022-08-01T12:43:18;4.97;;;1.35;;
43626;SDS011;29217;52.586;13.442;2022-08-01T12:45:45;2.45;;;1.10;;
43626;SDS011;29217;52.586;13.442;2022-08-01T12:48:14;5.05;;;1.13;;
43626;SDS011;29217;52.586;13.442;2022-08-01T12:50:42;3.00;;;1.33;;
43626;SDS011;29217;52.586;13.442;2022-08-01T12:53:09;4.15;;;1.25;;
43626;SDS011;29217;52.586;13.442;2022-08-01T12:55:54;1.95;;;1.35;;
43626;SDS011;29217;52.586;13.442;2022-08-01T12:58:20;1.27;;;0.95;;
43626;SDS011;29217;52.586;13.442;2022-08-01T13:00:48;2.13;;;1.10;;
43626;SDS011;29217;52.586;13.442;2022-08-01T13:03:16;3.33;;;1.30;;
43626;SDS011;29217;52.586;13.442;2022-08-01T13:05:50;2.15;;;1.50;;
43626;SDS011;29217;52.586;13.442;2022-08-01T13:08:18;5.43;;;1.50;;
43626;SDS011;29217;52.586;13.442;2022-08-01T13:10:45;2.97;;;1.23;;
43626;SDS011;29217;52.586;13.442;2022-08-01T13:13:12;2.42;;;1.33;;
43626;SDS011;29217;52.586;13.442;2022-08-01T13:15:39;2.28;;;1.23;;
43626;SDS011;29217;52.586;13.442;2022-08-01T13:18:30;1.50;;;1.40;;
43626;SDS011;29217;52.586;13.442;2022-08-01T13:21:10;3.13;;;1.17;;
43626;SDS011;29217;52.586;13.442;2022-08-01T13:29:13;3.75;;;1.40;;
43626;SDS011;29217;52.586;13.442;2022-08-01T13:31:43;2.75;;;1.50;;
43626;SDS011;29217;52.586;13.442;2022-08-01T13:34:09;2.13;;;1.60;;
43626;SDS011;29217;52.586;13.442;2022-08-01T13:36:35;4.65;;;1.50;;
43626;SDS011;29217;52.586;13.442;2022-08-01T13:39:01;3.83;;;1.50;;
43626;SDS011;29217;52.586;13.442;2022-08-01T13:41:46;1.75;;;1.45;;
43626;SDS011;29217;52.586;13.442;2022-08-01T13:44:12;2.33;;;1.60;;
43626;SDS011;29217;52.586;13.442;2022-08-01T13:46:38;2.13;;;1.90;;
43626;SDS011;29217;52.586;13.442;2022-08-01T13:49:05;4.20;;;1.48;;
43626;SDS011;29217;52.586;13.442;2022-08-01T13:51:32;4.63;;;1.50;;
43626;SDS011;29217;52.586;13.442;2022-08-01T13:53:58;2.55;;;1.60;;
43626;SDS011;29217;52.586;13.442;2022-08-01T13:56:24;1.95;;;1.50;;
43626;SDS011;29217;52.586;13.442;2022-08-01T13:58:50;3.03;;;1.63;;
43626;SDS011;29217;52.586;13.442;2022-08-01T14:01:15;3.15;;;1.90;;
43626;SDS011;29217;52.586;13.442;2022-08-01T14:03:41;4.10;;;2.55;;
43626;SDS011;29217;52.586;13.442;2022-08-01T14:06:07;4.18;;;2.00;;
43626;SDS011;29217;52.586;13.442;2022-08-01T14:08:32;6.00;;;1.92;;
43626;SDS011;29217;52.586;13.442;2022-08-01T14:10:58;2.53;;;1.60;;
43626;SDS011;29217;52.586;13.442;2022-08-01T14:13:24;4.00;;;2.47;;
43626;SDS011;29217;52.586;13.442;2022-08-01T14:15:51;2.55;;;1.83;;
43626;SDS011;29217;52.586;13.442;2022-08-01T14:18:16;5.93;;;2.20;;
43626;SDS011;29217;52.586;13.442;2022-08-01T14:20:42;4.50;;;2.42;;
43626;SDS011;29217;52.586;13.442;2022-08-01T14:23:09;3.40;;;2.25;;
43626;SDS011;29217;52.586;13.442;2022-08-01T14:25:35;59.50;;;45.42;;
43626;SDS011;29217;52.586;13.442;2022-08-01T14:28:02;51.88;;;38.30;;
43626;SDS011;29217;52.586;13.442;2022-08-01T14:30:27;22.67;;;20.15;;
43626;SDS011;29217;52.586;13.442;2022-08-01T14:32:53;19.70;;;14.70;;
43626;SDS011;29217;52.586;13.442;2022-08-01T14:35:19;33.05;;;26.02;;
43626;SDS011;29217;52.586;13.442;2022-08-01T14:37:44;26.88;;;4.03;;
43626;SDS011;29217;52.586;13.442;2022-08-01T14:40:10;3.25;;;2.85;;
43626;SDS011;29217;52.586;13.442;2022-08-01T14:42:37;5.40;;;1.67;;
43626;SDS011;29217;52.586;13.442;2022-08-01T14:45:04;3.78;;;1.80;;
43626;SDS011;29217;52.586;13.442;2022-08-01T14:47:33;5.50;;;1.70;;
43626;SDS011;29217;52.586;13.442;2022-08-01T14:50:00;4.00;;;2.25;;
43626;SDS011;29217;52.586;13.442;2022-08-01T14:52:26;2.72;;;2.00;;
43626;SDS011;29217;52.586;13.442;2022-08-01T14:54:51;10.80;;;2.28;;
43626;SDS011;29217;52.586;13.442;2022-08-01T14:57:17;1.90;;;1.67;;
43626;SDS011;29217;52.586;13.442;2022-08-01T14:59:43;1.88;;;1.30;;
43626;SDS011;29217;52.586;13.442;2022-08-01T15:02:09;2.33;;;2.08;;
43626;SDS011;29217;52.586;13.442;2022-08-01T15:04:36;1.83;;;1.35;;
43626;SDS011;29217;52.586;13.442;2022-08-01T15:07:01;3.63;;;1.27;;
43626;SDS011;29217;52.586;13.442;2022-08-01T15:09:27;3.00;;;1.83;;
43626;SDS011;29217;52.586;13.442;2022-08-01T15:11:52;7.22;;;1.38;;
43626;SDS011;29217;52.586;13.442;2022-08-01T15:14:18;2.97;;;1.02;;
43626;SDS011;29217;52.586;13.442;2022-08-01T15:17:02;1.52;;;0.85;;
43626;SDS011;29217;52.586;13.442;2022-08-01T15:19:28;0.80;;;0.70;;